Data for 10/25/2009

Time Sea-Level Adjusted Pressure Absolute Pressure Temperature Relative Humidity Dew Point   
(mb) (inHg) (mb) (inHg) (C) (F) (%) (C) (F)
00:05 1020 30.12 849 25.07 1.8 35.3 58 -5.6 21.9
00:10 1020 30.12 849 25.07 1.7 35 56 -6.1 21
00:15 1020 30.12 849 25.07 1.7 35.1 55 -6.4 20.5
00:20 1020 30.12 849 25.07 1.8 35.2 55 -6.4 20.4
00:25 1020 30.12 850 25.1 1.8 35.2 54 -6.5 20.4
00:30 1020 30.12 850 25.1 1.9 35.4 54 -6.5 20.4
00:35 1020 30.12 850 25.1 1.8 35.3 55 -6.2 20.8
00:40 1020 30.12 850 25.1 1.9 35.4 56 -6.1 21
00:45 1020 30.12 850 25.1 2 35.6 56 -5.9 21.3
00:50 1020 30.12 850 25.1 1.8 35.3 56 -6 21.2
00:55 1021 30.15 850 25.1 1.7 35 55 -6.3 20.7
01:00 1021 30.15 850 25.1 1.8 35.2 54 -6.5 20.3
01:05 1021 30.15 850 25.1 1.9 35.4 54 -6.5 20.3
01:10 1021 30.15 850 25.1 1.6 34.9 56 -6.2 20.9
01:15 1021 30.15 850 25.1 1.4 34.5 57 -6.2 20.9
01:20 1021 30.15 850 25.1 1.4 34.5 56 -6.5 20.3
01:25 1021 30.15 850 25.1 1.6 34.8 52 -7.1 19.2
01:30 1021 30.15 850 25.1 1.9 35.5 53 -6.8 19.8
01:35 1021 30.15 850 25.1 1.9 35.5 53 -6.7 20
01:40 1021 30.15 850 25.1 2 35.5 53 -6.7 19.9
01:45 1021 30.15 850 25.1 2 35.6 54 -6.4 20.4
01:50 1021 30.15 850 25.1 1.9 35.5 54 -6.4 20.4
01:55 1021 30.15 850 25.1 2 35.5 53 -6.6 20
02:00 1021 30.15 850 25.1 2 35.5 53 -6.5 20.2
02:05 1021 30.15 850 25.1 1.9 35.5 53 -6.5 20.2
02:10 1021 30.15 850 25.1 1.9 35.4 54 -6.5 20.3
02:15 1021 30.15 850 25.1 1.9 35.4 53 -6.6 20.1
02:20 1021 30.15 850 25.1 1.8 35.3 54 -6.5 20.4
02:25 1021 30.15 850 25.1 1.8 35.3 54 -6.6 20.2
02:30 1021 30.15 850 25.1 1.9 35.5 53 -6.7 19.9
02:35 1021 30.15 850 25.1 2 35.7 52 -6.7 19.9
02:40 1021 30.15 850 25.1 2 35.6 53 -6.6 20
02:45 1021 30.15 851 25.13 1.9 35.5 54 -6.5 20.3
02:50 1021 30.15 851 25.13 1.9 35.4 54 -6.4 20.6
02:55 1021 30.15 851 25.13 1.8 35.3 56 -6.2 20.9
03:00 1021 30.15 851 25.13 1.6 35 57 -6.1 21.1
03:05 1021 30.15 851 25.13 1.5 34.7 57 -6 21.1
03:10 1021 30.15 851 25.13 1.4 34.5 57 -6.1 20.9
03:15 1022 30.18 851 25.13 1.3 34.4 59 -5.8 21.6
03:20 1022 30.18 851 25.13 1.2 34.2 60 -5.8 21.5
03:25 1022 30.18 851 25.13 1.1 33.9 59 -6 21.3
03:30 1022 30.18 851 25.13 1 33.7 60 -6 21.2
03:35 1022 30.18 851 25.13 0.8 33.4 61 -5.9 21.3
03:40 1022 30.18 851 25.13 0.6 33.1 62 -5.9 21.3
03:45 1022 30.18 851 25.13 0.6 33.1 60 -6.2 20.9
03:50 1022 30.18 851 25.13 0.7 33.3 61 -6.1 21.1
03:55 1022 30.18 851 25.13 0.7 33.2 60 -6.2 20.8
04:00 1022 30.18 851 25.13 0.5 32.9 60 -6.4 20.6
04:05 1022 30.18 851 25.13 0.5 32.9 59 -6.5 20.2
04:10 1022 30.18 851 25.13 0.5 32.9 60 -6.5 20.3
04:15 1022 30.18 851 25.13 0.7 33.2 59 -6.4 20.5
04:20 1022 30.18 851 25.13 0.7 33.3 59 -6.3 20.6
04:25 1022 30.18 851 25.13 0.7 33.3 60 -6.2 20.9
04:30 1022 30.18 851 25.13 0.4 32.7 61 -6.2 20.9
04:35 1022 30.18 851 25.13 0.5 32.9 62 -6.1 21.1
04:40 1022 30.18 851 25.13 0.5 33 61 -6.2 20.8
04:45 1022 30.18 851 25.13 0.6 33 61 -6.1 21
04:50 1022 30.18 851 25.13 0.7 33.2 61 -6 21.1
04:55 1022 30.18 851 25.13 0.7 33.2 61 -6 21.2
05:00 1022 30.18 852 25.16 0.6 33 61 -6.1 21
05:05 1022 30.18 852 25.16 0.6 33.1 61 -6 21.2
05:10 1022 30.18 852 25.16 0.6 33 62 -5.9 21.4
05:15 1022 30.18 852 25.16 0.6 33 62 -5.9 21.4
05:20 1023 30.21 852 25.16 0.6 33.1 62 -5.8 21.5
05:25 1023 30.21 852 25.16 0.6 33.1 62 -5.9 21.5
05:30 1023 30.21 852 25.16 0.8 33.4 61 -5.9 21.4
05:35 1023 30.21 852 25.16 0.8 33.4 61 -5.9 21.5
05:40 1023 30.21 852 25.16 0.9 33.6 61 -5.9 21.4
05:45 1023 30.21 852 25.16 0.8 33.5 63 -5.5 22.1
05:50 1023 30.21 852 25.16 0.6 33.1 63 -5.7 21.7
05:55 1023 30.21 852 25.16 0.4 32.7 64 -5.7 21.7
06:00 1023 30.21 852 25.16 0 32 67 -5.5 22.1
06:05 1023 30.21 852 25.16 -0.1 31.8 67 -5.6 21.9
06:10 1023 30.21 852 25.16 -0.1 31.8 66 -5.6 21.8
06:15 1023 30.21 852 25.16 -0.3 31.5 69 -5.3 22.4
06:20 1023 30.21 852 25.16 -0.4 31.2 70 -5.3 22.4
06:25 1023 30.21 852 25.16 -0.5 31.1 68 -5.7 21.8
06:30 1023 30.21 852 25.16 -0.3 31.5 66 -5.8 21.6
06:35 1023 30.21 853 25.19 -0.2 31.7 66 -5.8 21.5
06:40 1023 30.21 853 25.19 0 32.1 63 -6.2 20.9
06:45 1023 30.21 853 25.19 0 32.1 63 -6.3 20.7
06:50 1023 30.21 853 25.19 0.1 32.2 63 -6.1 20.9
06:55 1023 30.21 853 25.19 0.3 32.6 62 -6.2 20.9
07:00 1023 30.21 853 25.19 0.4 32.8 61 -6.2 20.8
07:05 1024 30.24 853 25.19 0.3 32.6 62 -6 21.1
07:10 1024 30.24 853 25.19 0 32.1 64 -6 21.3
07:15 1024 30.24 853 25.19 0.2 32.3 63 -6.2 20.9
07:20 1024 30.24 853 25.19 -0 31.9 65 -5.9 21.4
07:25 1024 30.24 853 25.19 -0.1 31.9 64 -6 21.2
07:30 1024 30.24 853 25.19 0.2 32.3 63 -6.1 21
07:35 1024 30.24 853 25.19 0.3 32.5 62 -6.2 20.9
07:40 1024 30.24 853 25.19 0.2 32.4 62 -6.3 20.7
07:45 1024 30.24 853 25.19 0.1 32.3 61 -6.5 20.2
07:50 1024 30.24 853 25.19 0.3 32.5 60 -6.7 20
07:55 1024 30.24 853 25.19 0.3 32.6 59 -6.7 19.9
08:00 1024 30.24 853 25.19 0.4 32.7 59 -6.6 20.1
08:05 1024 30.24 853 25.19 0.4 32.8 62 -6 21.2
08:10 1024 30.24 853 25.19 0.3 32.6 63 -5.8 21.5
08:15 1024 30.24 853 25.19 0.1 32.1 64 -5.8 21.5
08:20 1024 30.24 853 25.19 0.1 32.2 63 -6.2 20.8
08:25 1024 30.24 853 25.19 0.2 32.3 62 -6.2 20.9
08:30 1024 30.24 853 25.19 0.1 32.2 63 -6.2 20.9
08:35 1024 30.24 853 25.19 0.2 32.3 62 -6.2 20.9
08:40 1024 30.24 853 25.19 0.5 32.8 62 -6 21.2
08:45 1024 30.24 853 25.19 0.6 33.1 65 -5.1 22.8
08:50 1024 30.24 853 25.19 0.4 32.6 68 -4.9 23.1
08:55 1024 30.24 853 25.19 0.2 32.4 64 -5.8 21.6
09:00 1024 30.24 854 25.22 0.4 32.7 62 -6.1 21.1
09:05 1024 30.24 854 25.22 0.7 33.2 60 -6.2 20.9
09:10 1024 30.24 854 25.22 0.8 33.5 60 -6 21.1
09:15 1025 30.27 854 25.22 1 33.7 59 -6.1 21
09:20 1025 30.27 854 25.22 1.2 34.2 59 -6 21.3
09:25 1025 30.27 854 25.22 0.9 33.5 61 -5.8 21.5
09:30 1025 30.27 854 25.22 0.7 33.3 63 -5.6 22
09:35 1025 30.27 854 25.22 0.9 33.7 61 -5.7 21.8
09:40 1025 30.27 854 25.22 1.5 34.6 58 -5.9 21.3
09:45 1025 30.27 854 25.22 1.8 35.2 57 -5.9 21.4
09:50 1025 30.27 854 25.22 1.9 35.5 54 -6.4 20.5
09:55 1025 30.27 854 25.22 2 35.6 55 -6.2 20.8
10:00 1025 30.27 854 25.22 2.3 36.2 52 -6.5 20.3
10:05 1025 30.27 854 25.22 3 37.3 50 -6.5 20.2
10:10 1025 30.27 854 25.22 2.8 37.1 51 -6.3 20.6
10:15 1025 30.27 854 25.22 2.8 37 49 -6.8 19.7
10:20 1025 30.27 854 25.22 2.5 36.5 53 -6.1 21.1
10:25 1025 30.27 854 25.22 2.5 36.4 51 -6.6 20.2
10:30 1025 30.27 854 25.22 2.7 36.8 52 -6.3 20.7
10:35 1025 30.27 854 25.22 2.6 36.7 50 -6.8 19.7
10:40 1025 30.27 854 25.22 2.6 36.6 50 -6.8 19.8
10:45 1025 30.27 854 25.22 2.8 37.1 49 -6.9 19.7
10:50 1025 30.27 854 25.22 2.9 37.3 47 -7.3 18.9
10:55 1025 30.27 854 25.22 2.8 37 47 -7.4 18.7
11:00 1025 30.27 854 25.22 2.6 36.8 46 -7.7 18.1
11:05 1025 30.27 855 25.25 3 37.4 45 -7.7 18.1
11:10 1025 30.27 855 25.25 3.5 38.2 43 -8 17.6
11:15 1025 30.27 855 25.25 3.6 38.6 43 -7.9 17.8
11:20 1025 30.27 855 25.25 3.9 38.9 43 -7.7 18.1
11:25 1025 30.27 855 25.25 4.5 40.1 40 -7.9 17.7
11:30 1025 30.27 855 25.25 4.8 40.6 40 -7.6 18.3
11:35 1025 30.27 855 25.25 5.1 41.2 39 -7.7 18.1
11:40 1025 30.27 855 25.25 4.9 40.9 39 -7.8 17.9
11:45 1025 30.27 855 25.25 4.8 40.6 39 -8 17.6
11:50 1025 30.27 855 25.25 4.3 39.8 40 -8.3 17.1
11:55 1025 30.27 855 25.25 4 39.2 41 -8.1 17.5
12:00 1025 30.27 855 25.25 3.9 39 39 -8.9 16
12:05 1025 30.27 855 25.25 4.2 39.5 38 -8.8 16.1
12:10 1025 30.27 855 25.25 4.6 40.2 39 -8.2 17.2
12:15 1025 30.27 855 25.25 5 41.1 37 -8.5 16.7
12:20 1025 30.27 855 25.25 5.8 42.5 36 -8.2 17.2
12:25 1025 30.27 855 25.25 4.2 39.6 41 -8 17.7
12:30 1025 30.27 855 25.25 4.6 40.3 38 -8.5 16.8
12:35 1025 30.27 855 25.25 5.2 41.3 37 -8.2 17.2
12:40 1025 30.27 855 25.25 4.9 40.8 38 -8.3 17.1
12:45 1025 30.27 855 25.25 4.5 40 38 -8.7 16.4
12:50 1025 30.27 855 25.25 5 41 36 -8.8 16.1
12:55 1025 30.27 855 25.25 6 42.8 34 -8.9 16
13:00 1025 30.27 855 25.25 6.7 44.1 32 -9 15.8
13:05 1025 30.27 854 25.22 6.9 44.5 32 -8.8 16.2
13:10 1025 30.27 854 25.22 6.3 43.3 34 -8.6 16.6
13:15 1025 30.27 854 25.22 5.5 42 34 -9.1 15.5
13:20 1025 30.27 854 25.22 5.3 41.6 36 -8.6 16.6
13:25 1025 30.27 854 25.22 5.1 41.2 36 -8.9 15.9
13:30 1025 30.27 854 25.22 4.8 40.6 36 -8.9 15.9
13:35 1025 30.27 854 25.22 5.3 41.6 35 -8.9 15.9
13:40 1025 30.27 854 25.22 5.1 41.2 35 -9 15.8
13:45 1025 30.27 854 25.22 4.4 39.9 36 -9.5 14.9
13:50 1025 30.27 854 25.22 4.6 40.3 36 -9.3 15.2
13:55 1025 30.27 854 25.22 5.1 41.2 34 -9.4 15.2
14:00 1025 30.27 854 25.22 5.4 41.7 34 -9.1 15.5
14:05 1025 30.27 854 25.22 5.4 41.7 36 -8.7 16.3
14:10 1025 30.27 854 25.22 5.8 42.4 31 -9.9 14.1
14:15 1025 30.27 854 25.22 6.8 44.2 31 -9.3 15.2
14:20 1025 30.27 854 25.22 6.9 44.5 31 -9 15.8
14:25 1025 30.27 854 25.22 6.1 43 32 -9.5 15
14:30 1025 30.27 854 25.22 6.8 44.2 30 -9.6 14.8
14:35 1025 30.27 854 25.22 7.4 45.3 29 -9.7 14.6
14:40 1025 30.27 854 25.22 7.5 45.5 27 -10.3 13.5
14:45 1025 30.27 854 25.22 7.4 45.2 28 -9.8 14.4
14:50 1025 30.27 854 25.22 7.4 45.3 28 -10 14
14:55 1025 30.27 854 25.22 7.1 44.7 29 -9.9 14.1
15:00 1025 30.27 854 25.22 6.7 44.1 30 -9.8 14.4
15:05 1024 30.24 854 25.22 7 44.6 29 -9.7 14.6
15:10 1024 30.24 854 25.22 7.7 45.9 27 -9.9 14.1
15:15 1024 30.24 854 25.22 8 46.4 28 -9.6 14.8
15:20 1024 30.24 854 25.22 7.9 46.2 27 -9.8 14.4
15:25 1024 30.24 854 25.22 7.7 45.9 27 -10.1 13.9
15:30 1024 30.24 853 25.19 7.6 45.7 28 -9.7 14.5
15:35 1024 30.24 853 25.19 6.9 44.4 28 -10.2 13.6
15:40 1024 30.24 853 25.19 7 44.6 29 -9.8 14.3
15:45 1024 30.24 853 25.19 7.3 45.2 28 -10 14
15:50 1024 30.24 853 25.19 6.8 44.2 29 -10.3 13.5
15:55 1024 30.24 853 25.19 7.5 45.5 28 -10 13.9
16:00 1024 30.24 853 25.19 7.5 45.4 27 -10.3 13.5
16:05 1024 30.24 853 25.19 7.4 45.3 28 -10.2 13.7
16:10 1024 30.24 853 25.19 6.8 44.3 29 -9.9 14.1
16:15 1024 30.24 853 25.19 6.5 43.7 29 -10.1 13.8
16:20 1024 30.24 853 25.19 5.9 42.6 31 -10.2 13.7
16:25 1024 30.24 853 25.19 6.7 44 28 -10.4 13.2
16:30 1024 30.24 853 25.19 7.4 45.3 27 -10.2 13.6
16:35 1024 30.24 853 25.19 7.5 45.5 29 -9.6 14.8
16:40 1024 30.24 853 25.19 7.2 44.9 29 -9.9 14.1
16:45 1024 30.24 853 25.19 6.6 43.9 29 -10.2 13.7
16:50 1024 30.24 853 25.19 6.3 43.4 31 -9.7 14.5
16:55 1024 30.24 853 25.19 6.9 44.3 28 -10.3 13.4
17:00 1024 30.24 853 25.19 7.6 45.6 27 -10.1 13.8
17:05 1024 30.24 853 25.19 7.7 45.8 28 -9.9 14.2
17:10 1024 30.24 853 25.19 7.3 45.2 28 -10.1 13.8
17:15 1024 30.24 853 25.19 7.4 45.3 29 -9.7 14.6
17:20 1024 30.24 853 25.19 7.1 44.8 28 -10.1 13.8
17:25 1024 30.24 853 25.19 7.2 44.9 28 -10 14.1
17:30 1024 30.24 853 25.19 6.9 44.4 29 -10.1 13.9
17:35 1024 30.24 853 25.19 7.1 44.7 28 -10 13.9
17:40 1024 30.24 853 25.19 7.1 44.8 28 -10.3 13.5
17:45 1024 30.24 853 25.19 7.1 44.8 28 -10 14
17:50 1024 30.24 853 25.19 6.6 43.9 30 -9.9 14.2
17:55 1024 30.24 853 25.19 6.2 43.1 30 -10.2 13.7
18:00 1024 30.24 853 25.19 5.9 42.7 31 -10 14
18:05 1024 30.24 853 25.19 5.6 42 31 -10.1 13.8
18:10 1024 30.24 853 25.19 4.9 40.8 33 -9.9 14.1
18:15 1024 30.24 853 25.19 4.4 40 34 -10.2 13.7
18:20 1024 30.24 853 25.19 4.3 39.7 35 -10 14
18:25 1024 30.24 853 25.19 4.1 39.4 36 -9.7 14.5
18:30 1024 30.24 853 25.19 4 39.2 35 -10.1 13.7
18:35 1023 30.21 853 25.19 4.1 39.3 35 -10.1 13.9
18:40 1023 30.21 853 25.19 3.9 39.1 35 -10 14
18:45 1023 30.21 853 25.19 3.7 38.7 41 -8.2 17.2
18:50 1023 30.21 853 25.19 3 37.5 45 -7.7 18.2
18:55 1023 30.21 852 25.16 2.5 36.4 49 -7.2 19.1
19:00 1023 30.21 852 25.16 2 35.6 50 -7.3 18.9
19:05 1023 30.21 852 25.16 1.6 35 52 -7.1 19.3
19:10 1023 30.21 852 25.16 1.2 34.2 53 -7.3 18.9
19:15 1023 30.21 852 25.16 1 33.9 54 -7.3 18.9
19:20 1023 30.21 852 25.16 0.7 33.3 55 -7.2 19
19:25 1023 30.21 852 25.16 0.4 32.8 56 -7.3 18.9
19:30 1023 30.21 852 25.16 0.3 32.5 57 -7.2 19
19:35 1023 30.21 852 25.16 0.2 32.3 56 -7.5 18.5
19:40 1023 30.21 852 25.16 0.2 32.3 58 -7.2 19
19:45 1023 30.21 852 25.16 -0.2 31.7 59 -7.3 18.9
19:50 1023 30.21 852 25.16 -0.3 31.5 57 -7.8 18
19:55 1023 30.21 852 25.16 0 32 55 -7.9 17.8
20:00 1023 30.21 852 25.16 0.2 32.4 55 -7.8 18
20:05 1023 30.21 852 25.16 -0 32 56 -7.7 18.1
20:10 1023 30.21 852 25.16 -0.1 31.8 56 -7.9 17.8
20:15 1023 30.21 852 25.16 0 32.1 56 -7.8 17.9
20:20 1023 30.21 852 25.16 -0.3 31.5 57 -7.7 18.1
20:25 1023 30.21 852 25.16 -0.3 31.5 58 -7.6 18.4
20:30 1023 30.21 852 25.16 -0.4 31.3 56 -8.2 17.3
20:35 1023 30.21 852 25.16 0.1 32.3 53 -8.4 16.8
20:40 1023 30.21 852 25.16 0.1 32.2 55 -7.8 17.9
20:45 1023 30.21 852 25.16 -0.1 31.9 55 -8.1 17.4
20:50 1023 30.21 852 25.16 0 32 54 -8.3 17.1
20:55 1023 30.21 852 25.16 0.1 32.2 54 -8.1 17.3
21:00 1023 30.21 852 25.16 -0.1 31.9 55 -8.1 17.5
21:05 1023 30.21 852 25.16 -0 31.9 53 -8.4 16.8
21:10 1023 30.21 852 25.16 0.3 32.6 51 -8.7 16.4
21:15 1023 30.21 852 25.16 0.5 32.8 52 -8.4 16.9
21:20 1023 30.21 852 25.16 0.4 32.7 52 -8.4 16.9
21:25 1023 30.21 852 25.16 0.3 32.6 52 -8.3 17
21:30 1023 30.21 852 25.16 0.2 32.4 52 -8.4 16.9
21:35 1023 30.21 852 25.16 0.3 32.5 52 -8.5 16.7
21:40 1023 30.21 852 25.16 0.4 32.8 50 -8.7 16.3
21:45 1023 30.21 852 25.16 0.4 32.7 51 -8.7 16.4
21:50 1023 30.21 852 25.16 0.5 32.8 51 -8.6 16.5
21:55 1023 30.21 852 25.16 0.5 32.9 51 -8.6 16.6
22:00 1023 30.21 852 25.16 0.5 32.8 51 -8.6 16.4
22:05 1023 30.21 852 25.16 0.5 32.8 50 -8.9 16
22:10 1023 30.21 852 25.16 0.3 32.6 51 -8.7 16.4
22:15 1023 30.21 852 25.16 0.4 32.6 50 -8.8 16.1
22:20 1023 30.21 852 25.16 0.4 32.8 49 -9 15.8
22:25 1022 30.18 852 25.16 0.5 32.8 49 -8.9 15.9
22:30 1022 30.18 852 25.16 0.6 33 47 -9.4 15.1
22:35 1022 30.18 852 25.16 0.6 33 46 -9.8 14.4
22:40 1022 30.18 852 25.16 0.6 33.1 47 -9.5 14.9
22:45 1022 30.18 852 25.16 0.5 32.9 47 -9.6 14.7
22:50 1022 30.18 852 25.16 0.4 32.8 47 -9.7 14.5
22:55 1022 30.18 851 25.13 0.4 32.7 48 -9.4 15
23:00 1022 30.18 851 25.13 0.3 32.6 46 -10 14
23:05 1022 30.18 851 25.13 0.4 32.8 46 -9.8 14.4
23:10 1022 30.18 851 25.13 0.3 32.6 45 -10.2 13.7
23:15 1022 30.18 851 25.13 0.5 32.8 47 -9.6 14.7
23:20 1022 30.18 851 25.13 0.3 32.6 46 -10 13.9
23:25 1022 30.18 851 25.13 0.3 32.5 47 -9.9 14.2
23:30 1022 30.18 851 25.13 0.1 32.2 48 -9.7 14.5
23:35 1022 30.18 851 25.13 -0.1 31.9 47 -10 14
23:40 1022 30.18 851 25.13 -0 32 47 -10.1 13.7
23:45 1022 30.18 851 25.13 0.1 32.1 46 -10.2 13.6
23:50 1022 30.18 851 25.13 -0 32 45 -10.5 13.1
23:55 1022 30.18 851 25.13 0.1 32.2 44 -10.7 12.7
24:00 1021 30.15 851 25.13 0.1 32.2 45 -10.6 13